createdAt,value
2019-05-22T00:00:30.061Z,92.49
2019-05-22T00:04:36.520Z,92.68
2019-05-22T00:08:40.440Z,92.96
2019-05-22T00:12:46.541Z,93.16
2019-05-22T00:16:49.265Z,93.07
2019-05-22T00:20:53.160Z,93.21
2019-05-22T00:24:56.696Z,93.17
2019-05-22T00:28:59.407Z,93.02
2019-05-22T00:33:03.236Z,93.22
2019-05-22T00:37:06.000Z,93.01
2019-05-22T00:41:10.068Z,92.97
2019-05-22T00:45:15.070Z,92.58
2019-05-22T00:49:18.270Z,92.45
2019-05-22T00:53:26.423Z,93.14
2019-05-22T00:57:37.188Z,93.43
2019-05-22T01:01:55.840Z,93.19
2019-05-22T01:05:58.699Z,93.29
2019-05-22T01:10:03.711Z,92.75
2019-05-22T01:14:07.588Z,92.74
2019-05-22T01:18:12.273Z,92.99
2019-05-22T01:22:15.362Z,92.71
2019-05-22T01:26:19.933Z,93.01
2019-05-22T01:30:38.343Z,92.93
2019-05-22T01:34:40.414Z,92.55
2019-05-22T01:38:42.405Z,92.54
2019-05-22T01:42:46.358Z,92.91
2019-05-22T01:46:50.540Z,92.55
2019-05-22T01:50:56.445Z,92.96
2019-05-22T01:54:58.452Z,92.86
2019-05-22T01:59:02.373Z,92.70
2019-05-22T02:03:06.318Z,92.57
2019-05-22T02:07:09.708Z,92.86
2019-05-22T02:11:16.420Z,93.37
2019-05-22T02:15:19.133Z,93.48
2019-05-22T02:19:22.606Z,93.10
2019-05-22T02:23:25.273Z,93.53
2019-05-22T02:27:28.002Z,93.55
2019-05-22T02:31:32.772Z,93.46
2019-05-22T02:35:35.124Z,93.41
2019-05-22T02:39:37.905Z,93.32
2019-05-22T02:43:39.828Z,93.27
2019-05-22T02:47:43.068Z,93.52
2019-05-22T02:51:46.457Z,93.73
2019-05-22T02:55:49.575Z,93.75
2019-05-22T02:59:52.332Z,93.25
2019-05-22T03:03:55.111Z,93.39
2019-05-22T03:07:57.646Z,93.46
2019-05-22T03:12:06.166Z,93.54
2019-05-22T03:16:09.967Z,93.49
2019-05-22T03:20:18.790Z,93.29
2019-05-22T03:24:21.091Z,92.88
2019-05-22T03:28:23.581Z,93.06
2019-05-22T03:32:26.174Z,92.99
2019-05-22T03:36:28.419Z,93.05
2019-05-22T03:40:32.038Z,93.07
2019-05-22T03:44:34.198Z,92.69
2019-05-22T03:48:37.921Z,92.89
2019-05-22T03:52:40.552Z,92.81
2019-05-22T03:56:43.047Z,92.69
2019-05-22T04:00:46.496Z,92.85
2019-05-22T04:04:48.629Z,93.41
2019-05-22T04:08:54.636Z,93.25
2019-05-22T04:12:56.770Z,92.86
2019-05-22T04:16:59.726Z,92.95
2019-05-22T04:21:03.566Z,92.81
2019-05-22T04:25:09.339Z,92.91
2019-05-22T04:29:11.805Z,92.71
2019-05-22T04:33:14.739Z,92.52
2019-05-22T04:37:17.482Z,91.97
2019-05-22T04:41:19.785Z,91.97
2019-05-22T04:45:23.202Z,92.21
2019-05-22T04:49:26.075Z,92.11
2019-05-22T04:53:29.202Z,92.64
2019-05-22T04:57:31.263Z,92.47
2019-05-22T05:01:33.510Z,92.37
2019-05-22T05:05:41.739Z,92.17
2019-05-22T05:09:44.663Z,91.80
2019-05-22T05:13:46.751Z,92.04
2019-05-22T05:17:48.827Z,92.23
2019-05-22T05:21:51.326Z,91.70
2019-05-22T05:25:53.606Z,91.35
2019-05-22T05:29:55.520Z,90.50
2019-05-22T05:34:17.994Z,90.08
2019-05-22T05:38:37.187Z,89.67
2019-05-22T05:42:40.021Z,88.86
2019-05-22T05:46:42.096Z,88.61
2019-05-22T05:51:06.308Z,88.65
2019-05-22T05:55:08.586Z,88.31
2019-05-22T05:59:12.351Z,88.13
2019-05-22T06:03:38.653Z,87.76
2019-05-22T06:07:41.415Z,88.06
2019-05-22T06:11:49.461Z,87.56
2019-05-22T06:16:09.096Z,87.71
2019-05-22T06:20:17.035Z,88.10
2019-05-22T06:24:38.005Z,88.34
2019-05-22T06:28:42.407Z,87.66
2019-05-22T06:33:10.377Z,86.97
2019-05-22T06:37:37.611Z,87.07
2019-05-22T06:41:40.980Z,86.66
2019-05-22T06:45:42.946Z,85.43
2019-05-22T06:49:49.134Z,86.04
2019-05-22T06:53:52.794Z,86.21
2019-05-22T06:57:55.058Z,85.43
2019-05-22T07:02:01.685Z,85.71
2019-05-22T07:06:03.248Z,86.23
2019-05-22T07:10:06.951Z,85.92
2019-05-22T07:14:11.366Z,85.37
2019-05-22T07:18:16.291Z,85.26
2019-05-22T07:22:18.831Z,84.54
2019-05-22T07:26:20.829Z,84.65
2019-05-22T07:30:23.443Z,84.26
2019-05-22T07:34:26.043Z,83.64
2019-05-22T07:38:28.197Z,83.52
2019-05-22T07:42:30.371Z,84.21
2019-05-22T07:46:32.758Z,82.85
2019-05-22T07:50:36.751Z,83.34
2019-05-22T07:54:40.516Z,83.75
2019-05-22T07:58:44.543Z,82.94
2019-05-22T08:02:50.285Z,83.70
2019-05-22T08:06:52.514Z,84.83
2019-05-22T08:10:56.415Z,84.27
2019-05-22T08:14:59.410Z,84.48
2019-05-22T08:19:01.676Z,84.21
2019-05-22T08:23:05.386Z,85.31
2019-05-22T08:27:09.113Z,86.02
2019-05-22T08:31:13.194Z,86.76
2019-05-22T08:35:15.886Z,85.93
2019-05-22T08:39:18.673Z,86.57
2019-05-22T08:43:21.331Z,86.31
2019-05-22T08:47:23.944Z,86.81
2019-05-22T08:51:25.858Z,86.66
2019-05-22T08:55:27.861Z,86.98
2019-05-22T08:59:29.952Z,87.07
2019-05-22T09:03:32.309Z,87.90
2019-05-22T09:07:35.144Z,88.38
2019-05-22T09:11:37.222Z,88.92
2019-05-22T09:15:40.305Z,88.55
2019-05-22T09:19:42.285Z,88.14
2019-05-22T09:23:45.690Z,87.87
2019-05-22T09:27:48.215Z,87.38
2019-05-22T09:31:50.234Z,86.77
2019-05-22T09:35:52.476Z,86.88
2019-05-22T09:39:54.452Z,87.32
2019-05-22T09:43:56.542Z,88.07
2019-05-22T09:47:59.489Z,87.68
2019-05-22T09:52:02.492Z,86.02
2019-05-22T09:56:05.863Z,85.40
2019-05-22T10:00:13.155Z,85.15
2019-05-22T10:04:15.509Z,85.19
2019-05-22T10:08:18.479Z,84.73
2019-05-22T10:12:20.820Z,85.41
2019-05-22T10:16:23.951Z,84.62
2019-05-22T10:20:26.291Z,83.80
2019-05-22T10:24:28.918Z,83.54
2019-05-22T10:28:30.914Z,82.47
2019-05-22T10:32:32.893Z,82.92
2019-05-22T10:36:35.162Z,80.77
2019-05-22T10:40:37.139Z,79.05
2019-05-22T10:44:39.069Z,79.60
2019-05-22T10:48:40.985Z,78.62
2019-05-22T10:52:43.432Z,78.49
2019-05-22T10:56:45.518Z,78.94
2019-05-22T11:00:47.611Z,80.13
2019-05-22T11:04:49.668Z,79.95
2019-05-22T11:08:51.622Z,80.63
2019-05-22T11:12:54.207Z,82.02
2019-05-22T11:17:01.294Z,81.23
2019-05-22T11:21:02.327Z,81.98
2019-05-22T11:25:08.894Z,82.19
2019-05-22T11:29:11.258Z,82.67
2019-05-22T11:33:13.421Z,81.57
2019-05-22T11:37:15.954Z,82.03
2019-05-22T11:41:19.170Z,81.95
2019-05-22T11:45:22.669Z,82.04
2019-05-22T11:49:24.954Z,81.70
2019-05-22T11:53:27.154Z,80.59
2019-05-22T11:57:30.382Z,80.08
2019-05-22T12:01:32.320Z,79.98
2019-05-22T12:05:34.757Z,80.26
2019-05-22T12:09:37.119Z,81.81
2019-05-22T12:13:39.273Z,81.95
2019-05-22T12:17:41.694Z,82.71
2019-05-22T12:21:44.744Z,82.11
2019-05-22T12:25:46.669Z,82.29
2019-05-22T12:29:49.770Z,82.10
2019-05-22T12:33:52.536Z,82.38
2019-05-22T12:37:54.768Z,82.83
2019-05-22T12:41:57.586Z,82.74
2019-05-22T12:46:00.559Z,83.51
2019-05-22T12:50:04.795Z,83.62
2019-05-22T12:54:08.761Z,83.41
2019-05-22T12:58:12.197Z,82.74
2019-05-22T13:02:16.441Z,83.61
2019-05-22T13:06:18.420Z,81.63
2019-05-22T13:10:21.418Z,81.21
2019-05-22T13:14:23.703Z,78.66
2019-05-22T13:18:26.940Z,78.12
2019-05-22T13:22:30.820Z,77.89
2019-05-22T13:26:36.707Z,78.71
2019-05-22T13:30:42.849Z,78.10
2019-05-22T13:34:45.728Z,78.15
2019-05-22T13:38:48.534Z,77.50
2019-05-22T13:42:50.565Z,76.78
2019-05-22T13:46:53.389Z,77.51
2019-05-22T13:50:58.087Z,77.73
2019-05-22T13:55:00.339Z,76.82
2019-05-22T13:59:03.274Z,76.88
2019-05-22T14:03:05.855Z,75.41
2019-05-22T14:07:08.964Z,74.79
2019-05-22T14:11:12.491Z,73.04
2019-05-22T14:15:15.398Z,72.51
2019-05-22T14:19:17.560Z,70.11
2019-05-22T14:23:21.353Z,71.75
2019-05-22T14:27:23.436Z,71.19
2019-05-22T14:31:25.798Z,72.07
2019-05-22T14:35:47.078Z,72.40
2019-05-22T14:39:35.172Z,70.08
2019-05-22T14:43:37.525Z,69.32
2019-05-22T14:47:39.737Z,70.25
2019-05-22T14:51:42.530Z,69.63
2019-05-22T14:55:46.389Z,70.89
2019-05-22T14:59:48.289Z,71.44
2019-05-22T15:03:52.046Z,70.12
2019-05-22T15:07:53.948Z,71.49
2019-05-22T15:11:56.104Z,71.30
2019-05-22T15:15:58.266Z,71.73
2019-05-22T15:20:00.168Z,71.84
2019-05-22T15:24:03.543Z,70.90
2019-05-22T15:28:07.250Z,70.48
2019-05-22T15:32:09.938Z,70.40
2019-05-22T15:36:13.648Z,71.47
2019-05-22T15:40:19.267Z,71.31
2019-05-22T15:44:23.318Z,71.88
2019-05-22T15:48:29.568Z,72.37
2019-05-22T15:52:35.118Z,72.88
2019-05-22T15:56:40.081Z,73.67
2019-05-22T16:00:46.098Z,74.50
2019-05-22T16:04:48.754Z,75.05
2019-05-22T16:08:52.815Z,75.31
2019-05-22T16:12:56.741Z,75.86
2019-05-22T16:16:59.477Z,75.35
2019-05-22T16:21:04.962Z,75.79
2019-05-22T16:25:09.425Z,75.71
2019-05-22T16:29:12.812Z,75.14
2019-05-22T16:33:16.106Z,75.21
2019-05-22T16:37:18.723Z,75.14
2019-05-22T16:41:22.522Z,75.37
2019-05-22T16:45:26.765Z,75.67
2019-05-22T16:49:30.072Z,75.93
2019-05-22T16:53:32.819Z,76.29
2019-05-22T16:57:36.042Z,76.38
2019-05-22T17:01:56.809Z,76.70
2019-05-22T17:05:43.510Z,77.25
2019-05-22T17:09:47.426Z,77.39
2019-05-22T17:13:50.956Z,77.60
2019-05-22T17:17:53.336Z,76.93
2019-05-22T17:21:55.691Z,76.74
2019-05-22T17:25:58.732Z,76.30
2019-05-22T17:30:01.590Z,76.25
2019-05-22T17:34:07.740Z,76.25
2019-05-22T17:38:10.941Z,76.50
2019-05-22T17:42:20.361Z,76.93
2019-05-22T17:46:24.029Z,77.18
2019-05-22T17:50:28.330Z,77.96
2019-05-22T17:54:30.303Z,78.09
2019-05-22T17:58:32.283Z,77.96
2019-05-22T18:02:36.230Z,77.51
2019-05-22T18:06:39.021Z,78.26
2019-05-22T18:10:44.311Z,78.08
2019-05-22T18:14:48.131Z,78.25
2019-05-22T18:18:50.205Z,78.25
2019-05-22T18:22:52.759Z,78.87
2019-05-22T18:26:54.747Z,78.42
2019-05-22T18:30:56.987Z,77.78
2019-05-22T18:35:00.144Z,78.19
2019-05-22T18:39:02.110Z,78.06
2019-05-22T18:43:04.774Z,78.48
2019-05-22T18:47:08.327Z,77.99
2019-05-22T18:51:11.050Z,78.01
2019-05-22T18:55:13.097Z,78.30
2019-05-22T18:59:15.339Z,78.29
2019-05-22T19:03:17.311Z,78.97
2019-05-22T19:07:19.291Z,79.07
2019-05-22T19:11:21.215Z,79.30
2019-05-22T19:15:24.869Z,79.95
2019-05-22T19:19:28.493Z,79.69
2019-05-22T19:23:30.538Z,79.20
2019-05-22T19:27:32.534Z,78.11
2019-05-22T19:31:34.607Z,75.77
2019-05-22T19:35:36.597Z,76.95
2019-05-22T19:39:38.768Z,77.14
2019-05-22T19:43:40.739Z,77.13
2019-05-22T19:47:49.791Z,76.90
2019-05-22T19:51:52.510Z,77.54
2019-05-22T19:55:54.689Z,77.71
2019-05-22T19:59:58.896Z,78.32
2019-05-22T20:04:01.388Z,78.35
2019-05-22T20:08:04.669Z,79.01
2019-05-22T20:12:07.388Z,78.90
2019-05-22T20:16:10.489Z,79.65
2019-05-22T20:20:17.482Z,80.16
2019-05-22T20:24:19.555Z,80.74
2019-05-22T20:28:22.094Z,81.88
2019-05-22T20:32:23.990Z,82.64
2019-05-22T20:36:26.197Z,83.33
2019-05-22T20:40:28.701Z,83.62
2019-05-22T20:44:30.928Z,83.76
2019-05-22T20:48:33.210Z,84.60
2019-05-22T20:52:35.545Z,84.69
2019-05-22T20:56:39.820Z,84.83
2019-05-22T21:00:43.469Z,84.88
2019-05-22T21:04:48.163Z,84.96
2019-05-22T21:08:50.894Z,85.14
2019-05-22T21:12:54.411Z,85.10
2019-05-22T21:16:56.709Z,85.28
2019-05-22T21:20:58.865Z,85.44
2019-05-22T21:25:01.938Z,85.84
2019-05-22T21:29:04.465Z,86.14
2019-05-22T21:33:07.125Z,86.35
2019-05-22T21:37:09.734Z,86.49
2019-05-22T21:41:12.165Z,86.04
2019-05-22T21:45:14.888Z,85.74
2019-05-22T21:49:19.081Z,85.82
2019-05-22T21:53:21.304Z,85.81
2019-05-22T21:57:23.456Z,86.26
2019-05-22T22:01:27.669Z,86.44
2019-05-22T22:05:31.134Z,86.39
2019-05-22T22:09:33.095Z,86.07
2019-05-22T22:13:39.603Z,86.12
2019-05-22T22:17:43.217Z,85.90
2019-05-22T22:21:45.967Z,86.13
2019-05-22T22:25:49.228Z,86.13
2019-05-22T22:29:51.926Z,87.01
2019-05-22T22:33:59.056Z,87.17
2019-05-22T22:38:03.419Z,87.97
2019-05-22T22:42:07.033Z,88.26
2019-05-22T22:46:23.706Z,88.02
2019-05-22T22:50:26.220Z,88.64
2019-05-22T22:54:29.211Z,88.67
2019-05-22T22:58:32.265Z,88.42
2019-05-22T23:02:35.356Z,87.69
2019-05-22T23:06:38.740Z,87.17
2019-05-22T23:10:42.258Z,87.74
2019-05-22T23:14:52.594Z,86.84
2019-05-22T23:19:15.773Z,87.01
2019-05-22T23:23:17.416Z,86.76
2019-05-22T23:27:21.074Z,86.45
2019-05-22T23:31:23.814Z,86.62
2019-05-22T23:35:27.564Z,86.88
2019-05-22T23:39:32.505Z,86.52
2019-05-22T23:43:34.689Z,86.56
2019-05-22T23:47:51.057Z,86.65
2019-05-22T23:51:53.165Z,86.93
2019-05-22T23:55:56.767Z,87.19
